createdAt,value
2022-11-05T00:01:54.015Z,90.19
2022-11-05T00:04:39.346Z,89.91
2022-11-05T00:07:27.324Z,90.23
2022-11-05T00:10:03.571Z,90.56
2022-11-05T00:12:48.779Z,90.16
2022-11-05T00:15:34.304Z,89.62
2022-11-05T00:18:00.945Z,90.31
2022-11-05T00:20:27.505Z,90.16
2022-11-05T00:23:20.525Z,89.66
2022-11-05T00:26:01.992Z,90.33
2022-11-05T00:28:30.428Z,90.19
2022-11-05T00:31:05.863Z,90.00
2022-11-05T00:33:33.145Z,89.82
2022-11-05T00:35:59.643Z,89.70
2022-11-05T00:38:26.141Z,89.52
2022-11-05T00:40:52.825Z,89.12
2022-11-05T00:43:38.211Z,89.75
2022-11-05T00:46:05.112Z,89.68
2022-11-05T00:48:50.262Z,90.08
2022-11-05T00:51:17.086Z,89.74
2022-11-05T00:53:43.619Z,89.54
2022-11-05T00:56:10.127Z,88.22
2022-11-05T00:58:36.675Z,88.72
2022-11-05T01:01:03.976Z,88.89
2022-11-05T01:03:33.137Z,88.66
2022-11-05T01:06:13.962Z,89.07
2022-11-05T01:08:42.074Z,88.78
2022-11-05T01:11:34.223Z,88.82
2022-11-05T01:14:07.719Z,88.22
2022-11-05T01:16:35.156Z,88.00
2022-11-05T01:19:03.096Z,88.01
2022-11-05T01:21:29.591Z,87.67
2022-11-05T01:23:56.360Z,87.86
2022-11-05T01:26:23.061Z,88.35
2022-11-05T01:28:57.779Z,86.77
2022-11-05T01:31:24.791Z,87.03
2022-11-05T01:33:51.338Z,86.32
2022-11-05T01:36:18.247Z,87.00
2022-11-05T01:38:45.181Z,87.38
2022-11-05T01:41:11.791Z,87.08
2022-11-05T01:44:26.463Z,88.66
2022-11-05T01:46:53.045Z,88.29
2022-11-05T01:49:33.256Z,89.02
2022-11-05T01:52:03.084Z,89.19
2022-11-05T01:54:33.277Z,89.26
2022-11-05T01:57:04.092Z,88.88
2022-11-05T01:59:35.289Z,88.73
2022-11-05T02:02:02.598Z,89.75
2022-11-05T02:04:46.073Z,89.20
2022-11-05T02:07:13.131Z,89.68
2022-11-05T02:09:48.338Z,89.33
2022-11-05T02:12:15.460Z,88.60
2022-11-05T02:14:42.006Z,87.46
2022-11-05T02:17:26.183Z,88.24
2022-11-05T02:20:11.435Z,88.27
2022-11-05T02:22:53.362Z,88.17
2022-11-05T02:25:50.816Z,88.57
2022-11-05T02:28:36.295Z,88.12
2022-11-05T02:31:12.078Z,87.27
2022-11-05T02:33:57.106Z,87.93
2022-11-05T02:36:38.700Z,88.04
2022-11-05T02:39:43.347Z,88.13
2022-11-05T02:42:39.065Z,86.42
2022-11-05T02:45:30.847Z,85.41
2022-11-05T02:48:11.784Z,85.96
2022-11-05T02:50:58.593Z,86.69
2022-11-05T02:53:42.603Z,86.70
2022-11-05T02:56:21.297Z,86.44
2022-11-05T02:58:48.044Z,88.20
2022-11-05T03:01:14.635Z,88.54
2022-11-05T03:03:47.288Z,87.94
2022-11-05T03:06:32.300Z,88.68
2022-11-05T03:09:11.239Z,88.69
2022-11-05T03:12:08.096Z,87.62
2022-11-05T03:14:54.059Z,88.15
2022-11-05T03:17:31.172Z,87.98
2022-11-05T03:20:18.519Z,88.85
2022-11-05T03:22:54.244Z,89.93
2022-11-05T03:25:24.325Z,90.10
2022-11-05T03:27:57.512Z,90.63
2022-11-05T03:30:25.452Z,91.14
2022-11-05T03:33:06.875Z,91.46
2022-11-05T03:35:40.084Z,91.51
2022-11-05T03:38:12.931Z,91.63
2022-11-05T03:40:42.737Z,91.47
2022-11-05T03:43:09.820Z,90.58
2022-11-05T03:45:55.980Z,91.05
2022-11-05T03:48:25.846Z,91.22
2022-11-05T03:51:10.143Z,90.49
2022-11-05T03:53:47.325Z,91.37
2022-11-05T03:56:29.428Z,88.96
2022-11-05T03:58:59.142Z,90.11
2022-11-05T04:01:26.394Z,91.69
2022-11-05T04:03:53.203Z,91.82
2022-11-05T04:06:38.741Z,92.76
2022-11-05T04:09:23.815Z,93.42
2022-11-05T04:12:08.713Z,92.53
2022-11-05T04:14:35.583Z,92.70
2022-11-05T04:17:09.140Z,93.25
2022-11-05T04:19:56.195Z,93.73
2022-11-05T04:22:41.877Z,93.18
2022-11-05T04:25:08.887Z,93.41
2022-11-05T04:27:36.520Z,93.56
2022-11-05T04:30:20.031Z,93.85
2022-11-05T04:33:07.800Z,93.19
2022-11-05T04:35:37.163Z,93.17
2022-11-05T04:38:05.640Z,93.19
2022-11-05T04:40:32.585Z,93.57
2022-11-05T04:42:59.794Z,94.09
2022-11-05T04:45:29.708Z,93.82
2022-11-05T04:47:56.290Z,93.78
2022-11-05T04:50:23.572Z,93.87
2022-11-05T04:52:50.088Z,93.89
2022-11-05T04:55:16.701Z,94.50
2022-11-05T04:57:43.651Z,94.20
2022-11-05T05:00:11.341Z,94.27
2022-11-05T05:02:38.118Z,94.26
2022-11-05T05:05:05.909Z,94.35
2022-11-05T05:07:33.887Z,94.45
2022-11-05T05:10:02.030Z,94.28
2022-11-05T05:12:28.925Z,94.08
2022-11-05T05:14:55.477Z,94.68
2022-11-05T05:17:22.081Z,94.23
2022-11-05T05:20:07.457Z,93.87
2022-11-05T05:22:34.069Z,94.20
2022-11-05T05:25:00.620Z,94.49
2022-11-05T05:27:30.951Z,94.94
2022-11-05T05:29:58.872Z,95.47
2022-11-05T05:32:26.082Z,95.62
2022-11-05T05:34:52.937Z,96.04
2022-11-05T05:37:20.052Z,96.49
2022-11-05T05:39:47.974Z,96.39
2022-11-05T05:42:15.352Z,96.32
2022-11-05T05:44:42.056Z,96.55
2022-11-05T05:47:08.799Z,96.74
2022-11-05T05:49:35.392Z,96.85
2022-11-05T05:52:02.088Z,95.36
2022-11-05T05:54:32.349Z,94.63
2022-11-05T05:57:00.232Z,94.38
2022-11-05T05:59:26.754Z,94.69
2022-11-05T06:01:53.427Z,95.15
2022-11-05T06:04:20.667Z,95.21
2022-11-05T06:06:47.214Z,94.84
2022-11-05T06:09:14.264Z,94.37
2022-11-05T06:11:41.343Z,92.81
2022-11-05T06:14:10.991Z,92.63
2022-11-05T06:16:39.024Z,93.51
2022-11-05T06:19:06.813Z,93.55
2022-11-05T06:21:33.913Z,93.90
2022-11-05T06:24:02.273Z,93.01
2022-11-05T06:26:29.158Z,91.44
2022-11-05T06:28:55.696Z,92.86
2022-11-05T06:31:22.591Z,93.50
2022-11-05T06:33:49.128Z,93.26
2022-11-05T06:36:17.599Z,91.44
2022-11-05T06:38:44.281Z,94.49
2022-11-05T06:41:11.021Z,95.79
2022-11-05T06:43:38.107Z,96.20
2022-11-05T06:46:05.071Z,96.76
2022-11-05T06:48:31.752Z,96.47
2022-11-05T06:50:58.356Z,96.09
2022-11-05T06:53:25.700Z,96.70
2022-11-05T06:55:52.261Z,95.65
2022-11-05T06:58:18.913Z,95.20
2022-11-05T07:00:45.648Z,95.99
2022-11-05T07:03:13.580Z,95.20
2022-11-05T07:05:45.216Z,95.88
2022-11-05T07:08:11.819Z,95.70
2022-11-05T07:10:38.572Z,96.73
2022-11-05T07:13:08.445Z,96.61
2022-11-05T07:15:36.845Z,96.54
2022-11-05T07:18:04.120Z,96.18
2022-11-05T07:20:33.861Z,96.00
2022-11-05T07:23:02.557Z,96.09
2022-11-05T07:25:31.197Z,96.05
2022-11-05T07:27:57.932Z,95.41
2022-11-05T07:30:24.726Z,95.06
2022-11-05T07:32:51.320Z,95.08
2022-11-05T07:35:18.169Z,94.91
2022-11-05T07:37:54.141Z,93.61
2022-11-05T07:40:21.609Z,93.81
2022-11-05T07:42:50.518Z,94.95
2022-11-05T07:45:17.329Z,95.16
2022-11-05T07:47:48.821Z,95.15
2022-11-05T07:50:17.804Z,94.63
2022-11-05T07:52:44.633Z,94.01
2022-11-05T07:55:13.231Z,93.34
2022-11-05T07:57:51.019Z,93.02
2022-11-05T08:00:22.580Z,91.24
2022-11-05T08:03:11.038Z,89.71
2022-11-05T08:05:40.306Z,88.27
2022-11-05T08:08:09.070Z,87.82
2022-11-05T08:10:37.013Z,89.11
2022-11-05T08:13:04.656Z,88.56
2022-11-05T08:15:31.621Z,87.00
2022-11-05T08:18:03.428Z,86.97
2022-11-05T08:20:30.410Z,87.71
2022-11-05T08:22:57.628Z,87.46
2022-11-05T08:25:25.492Z,87.38
2022-11-05T08:27:57.035Z,89.23
2022-11-05T08:30:24.226Z,88.90
2022-11-05T08:32:51.361Z,89.21
2022-11-05T08:35:18.116Z,87.91
2022-11-05T08:37:44.644Z,87.83
2022-11-05T08:40:11.773Z,88.02
2022-11-05T08:42:38.333Z,88.10
2022-11-05T08:45:05.181Z,86.99
2022-11-05T08:47:31.900Z,87.95
2022-11-05T08:49:58.426Z,86.40
2022-11-05T08:52:24.928Z,84.63
2022-11-05T08:54:51.503Z,84.03
2022-11-05T08:57:18.020Z,82.32
2022-11-05T08:59:44.527Z,82.19
2022-11-05T09:02:11.350Z,79.47
2022-11-05T09:04:37.956Z,80.07
2022-11-05T09:07:04.473Z,81.75
2022-11-05T09:09:31.159Z,80.43
2022-11-05T09:12:11.728Z,80.87
2022-11-05T09:14:39.290Z,79.76
2022-11-05T09:17:16.974Z,79.13
2022-11-05T09:19:44.211Z,79.84
2022-11-05T09:22:12.779Z,79.43
2022-11-05T09:24:41.723Z,81.43
2022-11-05T09:27:15.764Z,83.36
2022-11-05T09:29:42.645Z,83.68
2022-11-05T09:32:09.545Z,83.14
2022-11-05T09:34:36.586Z,83.59
2022-11-05T09:37:03.569Z,81.75
2022-11-05T09:39:30.408Z,80.51
2022-11-05T09:42:02.816Z,79.39
2022-11-05T09:44:41.866Z,78.05
2022-11-05T09:47:16.251Z,78.91
2022-11-05T09:49:48.096Z,76.18
2022-11-05T09:52:21.797Z,76.19
2022-11-05T09:54:50.269Z,77.10
2022-11-05T09:57:24.583Z,74.81
2022-11-05T09:59:57.615Z,74.83
2022-11-05T10:02:33.000Z,75.00
2022-11-05T10:05:09.182Z,72.65
2022-11-05T10:07:44.582Z,74.29
2022-11-05T10:10:40.871Z,72.42
2022-11-05T10:13:21.960Z,75.32
2022-11-05T10:16:02.542Z,72.79
2022-11-05T10:18:37.357Z,70.62
2022-11-05T10:21:04.452Z,67.05
2022-11-05T10:23:31.045Z,70.03
2022-11-05T10:26:05.624Z,66.26
2022-11-05T10:28:34.086Z,63.56
2022-11-05T10:31:14.567Z,67.01
2022-11-05T10:33:46.447Z,64.53
2022-11-05T10:36:34.966Z,65.05
2022-11-05T10:39:16.061Z,66.47
2022-11-05T10:42:20.244Z,65.86
2022-11-05T10:45:08.461Z,65.50
2022-11-05T10:48:04.504Z,65.51
2022-11-05T10:50:31.555Z,64.61
2022-11-05T10:53:02.412Z,68.25
2022-11-05T10:55:31.686Z,67.35
2022-11-05T10:58:11.836Z,68.29
2022-11-05T11:00:39.187Z,68.78
2022-11-05T11:03:26.680Z,69.23
2022-11-05T11:06:02.787Z,68.71
2022-11-05T11:08:33.464Z,70.67
2022-11-05T11:11:06.196Z,68.44
2022-11-05T11:13:58.223Z,67.52
2022-11-05T11:16:27.576Z,70.09
2022-11-05T11:19:00.935Z,70.12
2022-11-05T11:21:30.202Z,67.53
2022-11-05T11:24:06.947Z,67.47
2022-11-05T11:26:37.631Z,65.55
2022-11-05T11:29:25.464Z,67.52
2022-11-05T11:31:59.814Z,65.06
2022-11-05T11:34:34.101Z,64.07
2022-11-05T11:37:19.206Z,63.22
2022-11-05T11:39:53.784Z,64.90
2022-11-05T11:42:36.807Z,63.91
2022-11-05T11:45:27.204Z,60.16
2022-11-05T11:47:56.514Z,58.97
2022-11-05T11:50:44.251Z,58.08
2022-11-05T11:53:34.616Z,60.20
2022-11-05T11:56:14.494Z,57.35
2022-11-05T11:58:51.469Z,57.32
2022-11-05T12:01:42.409Z,59.78
2022-11-05T12:04:21.683Z,60.04
2022-11-05T12:07:15.597Z,57.69
2022-11-05T12:09:51.372Z,57.58
2022-11-05T12:12:26.105Z,60.75
2022-11-05T12:15:00.904Z,55.23
2022-11-05T12:17:51.850Z,58.11
2022-11-05T12:20:31.688Z,55.95
2022-11-05T12:23:13.894Z,53.32
2022-11-05T12:26:02.065Z,53.18
2022-11-05T12:28:57.893Z,53.87
2022-11-05T12:31:59.050Z,51.96
2022-11-05T12:34:51.556Z,49.36
2022-11-05T12:37:53.026Z,50.49
2022-11-05T12:40:31.745Z,49.92
2022-11-05T12:43:13.814Z,50.29
2022-11-05T12:46:18.581Z,54.50
2022-11-05T12:49:08.220Z,51.94
2022-11-05T12:51:57.708Z,52.88
2022-11-05T12:54:30.293Z,51.73
2022-11-05T12:57:01.679Z,51.10
2022-11-05T12:59:49.604Z,49.16
2022-11-05T13:02:33.164Z,50.07
2022-11-05T13:05:06.712Z,50.59
2022-11-05T13:07:40.880Z,51.88
2022-11-05T13:10:13.663Z,52.66
2022-11-05T13:12:42.608Z,51.49
2022-11-05T13:15:32.848Z,52.87
2022-11-05T13:18:04.684Z,55.62
2022-11-05T13:20:39.854Z,54.04
2022-11-05T13:23:21.349Z,55.32
2022-11-05T13:25:53.413Z,53.36
2022-11-05T13:28:46.993Z,53.53
2022-11-05T13:31:18.643Z,52.90
2022-11-05T13:33:48.608Z,52.08
2022-11-05T13:37:02.952Z,52.19
2022-11-05T13:39:38.224Z,51.71
2022-11-05T13:42:19.825Z,52.30
2022-11-05T13:45:18.816Z,48.37
2022-11-05T13:48:11.707Z,49.26
2022-11-05T13:51:02.824Z,50.32
2022-11-05T13:53:49.424Z,52.09
2022-11-05T13:56:21.645Z,50.69
2022-11-05T13:59:22.480Z,53.36
2022-11-05T14:02:00.152Z,55.53
2022-11-05T14:04:39.258Z,52.98
2022-11-05T14:07:19.572Z,56.66
2022-11-05T14:09:48.540Z,54.94
2022-11-05T14:12:26.839Z,53.92
2022-11-05T14:15:00.150Z,55.75
2022-11-05T14:17:54.707Z,56.21
2022-11-05T14:20:30.447Z,57.00
2022-11-05T14:23:25.172Z,57.41
2022-11-05T14:26:23.622Z,55.30
2022-11-05T14:29:11.321Z,55.96
2022-11-05T14:32:07.935Z,57.77
2022-11-05T14:34:43.960Z,57.09
2022-11-05T14:37:13.602Z,57.07
2022-11-05T14:39:41.392Z,60.23
2022-11-05T14:42:29.612Z,60.56
2022-11-05T14:45:21.179Z,61.64
2022-11-05T14:48:26.092Z,58.95
2022-11-05T14:50:52.778Z,56.91
2022-11-05T14:53:25.502Z,54.81
2022-11-05T14:56:02.525Z,59.60
2022-11-05T14:58:32.663Z,58.76
2022-11-05T15:01:01.000Z,59.08
2022-11-05T15:03:35.219Z,59.40
2022-11-05T15:06:17.687Z,58.32
2022-11-05T15:08:50.341Z,60.22
2022-11-05T15:11:30.325Z,61.68
2022-11-05T15:14:18.155Z,63.47
2022-11-05T15:16:52.950Z,62.14
2022-11-05T15:19:37.123Z,63.18
2022-11-05T15:22:10.784Z,63.89
2022-11-05T15:24:40.600Z,63.13
2022-11-05T15:27:10.321Z,63.58
2022-11-05T15:29:36.953Z,64.23
2022-11-05T15:32:03.641Z,65.00
2022-11-05T15:34:33.177Z,66.40
2022-11-05T15:37:02.969Z,69.68
2022-11-05T15:39:41.520Z,73.83
2022-11-05T15:42:24.669Z,74.54
2022-11-05T15:44:56.762Z,75.50
2022-11-05T15:47:31.416Z,75.00
2022-11-05T15:50:14.685Z,76.09
2022-11-05T15:52:50.711Z,75.29
2022-11-05T15:55:26.410Z,75.77
2022-11-05T15:58:03.075Z,76.83
2022-11-05T16:00:33.259Z,76.41
2022-11-05T16:03:06.316Z,75.56
2022-11-05T16:05:35.652Z,76.89
2022-11-05T16:08:04.388Z,78.90
2022-11-05T16:10:33.659Z,80.04
2022-11-05T16:13:35.836Z,80.34
2022-11-05T16:16:21.190Z,79.88
2022-11-05T16:18:47.849Z,78.04
2022-11-05T16:21:22.552Z,77.61
2022-11-05T16:23:49.220Z,78.77
2022-11-05T16:27:00.035Z,80.56
2022-11-05T16:29:34.820Z,80.72
2022-11-05T16:32:04.861Z,80.48
2022-11-05T16:34:41.816Z,79.53
2022-11-05T16:37:13.562Z,80.90
2022-11-05T16:39:40.414Z,81.92
2022-11-05T16:42:37.955Z,81.15
2022-11-05T16:45:05.460Z,81.65
2022-11-05T16:47:32.001Z,80.35
2022-11-05T16:49:59.085Z,80.81
2022-11-05T16:52:25.680Z,81.65
2022-11-05T16:54:52.195Z,80.93
2022-11-05T16:57:27.224Z,80.33
2022-11-05T16:59:59.300Z,79.80
2022-11-05T17:02:26.249Z,81.17
2022-11-05T17:04:53.131Z,80.61
2022-11-05T17:07:19.687Z,81.12
2022-11-05T17:09:46.267Z,79.86
2022-11-05T17:12:13.620Z,79.38
2022-11-05T17:14:40.250Z,81.47
2022-11-05T17:17:06.984Z,81.37
2022-11-05T17:19:33.620Z,80.96
2022-11-05T17:22:00.168Z,80.47
2022-11-05T17:24:26.701Z,81.93
2022-11-05T17:26:53.259Z,83.59
2022-11-05T17:29:19.813Z,81.84
2022-11-05T17:31:46.362Z,80.52
2022-11-05T17:34:12.944Z,80.76
2022-11-05T17:36:39.470Z,81.49
2022-11-05T17:39:06.051Z,82.00
2022-11-05T17:41:32.799Z,81.53
2022-11-05T17:44:00.314Z,81.25
2022-11-05T17:46:26.977Z,81.62
2022-11-05T17:48:53.713Z,82.07
2022-11-05T17:51:21.104Z,82.96
2022-11-05T17:53:49.254Z,83.11
2022-11-05T17:56:28.906Z,83.54
2022-11-05T17:59:01.050Z,83.60
2022-11-05T18:01:33.371Z,83.20
2022-11-05T18:04:05.475Z,84.07
2022-11-05T18:06:34.812Z,83.47
2022-11-05T18:09:01.581Z,84.06
2022-11-05T18:11:28.110Z,84.68
2022-11-05T18:13:54.833Z,85.80
2022-11-05T18:16:21.331Z,86.13
2022-11-05T18:18:49.305Z,87.04
2022-11-05T18:21:16.213Z,86.46
2022-11-05T18:23:42.948Z,87.10
2022-11-05T18:26:11.082Z,86.82
2022-11-05T18:28:38.328Z,87.06
2022-11-05T18:31:08.270Z,86.92
2022-11-05T18:33:34.988Z,85.70
2022-11-05T18:36:01.552Z,84.85
2022-11-05T18:38:28.127Z,85.31
2022-11-05T18:40:54.674Z,83.98
2022-11-05T18:43:21.390Z,85.49
2022-11-05T18:45:55.852Z,84.83
2022-11-05T18:48:22.429Z,85.38
2022-11-05T18:50:49.589Z,85.37
2022-11-05T18:53:16.323Z,84.44
2022-11-05T18:55:42.918Z,84.52
2022-11-05T18:58:09.651Z,85.07
2022-11-05T19:00:39.708Z,86.02
2022-11-05T19:03:07.349Z,85.99
2022-11-05T19:05:34.609Z,86.13
2022-11-05T19:08:01.565Z,87.13
2022-11-05T19:10:28.257Z,87.06
2022-11-05T19:12:54.949Z,87.15
2022-11-05T19:15:21.797Z,87.85
2022-11-05T19:17:48.391Z,88.36
2022-11-05T19:20:17.082Z,89.01
2022-11-05T19:22:43.589Z,89.72
2022-11-05T19:25:10.419Z,89.73
2022-11-05T19:27:38.721Z,90.49
2022-11-05T19:30:06.020Z,90.24
2022-11-05T19:32:32.691Z,89.50
2022-11-05T19:34:59.174Z,91.01
2022-11-05T19:37:25.673Z,91.07
2022-11-05T19:39:52.374Z,90.72
2022-11-05T19:42:18.877Z,89.07
2022-11-05T19:44:45.476Z,90.12
2022-11-05T19:47:12.204Z,92.07
2022-11-05T19:49:38.923Z,90.46
2022-11-05T19:52:06.687Z,90.22
2022-11-05T19:54:35.721Z,89.05
2022-11-05T19:57:02.250Z,90.99
2022-11-05T19:59:28.866Z,91.19
2022-11-05T20:01:55.639Z,89.22
2022-11-05T20:04:22.303Z,91.10
2022-11-05T20:06:49.143Z,90.13
2022-11-05T20:09:23.469Z,89.85
2022-11-05T20:11:54.802Z,88.54
2022-11-05T20:14:21.966Z,88.33
2022-11-05T20:16:49.053Z,89.80
2022-11-05T20:19:19.306Z,90.41
2022-11-05T20:21:46.256Z,90.54
2022-11-05T20:24:20.319Z,91.25
2022-11-05T20:26:50.403Z,89.97
2022-11-05T20:29:17.100Z,87.75
2022-11-05T20:31:43.652Z,89.08
2022-11-05T20:34:10.594Z,89.63
2022-11-05T20:36:37.217Z,91.18
2022-11-05T20:39:03.968Z,90.28
2022-11-05T20:41:31.583Z,88.76
2022-11-05T20:43:58.242Z,88.69
2022-11-05T20:46:25.633Z,89.75
2022-11-05T20:48:53.468Z,89.65
2022-11-05T20:51:22.964Z,88.34
2022-11-05T20:53:53.676Z,88.84
2022-11-05T20:56:23.275Z,89.87
2022-11-05T20:58:50.505Z,89.00
2022-11-05T21:01:18.712Z,88.68
2022-11-05T21:03:46.826Z,87.96
2022-11-05T21:06:13.873Z,89.91
2022-11-05T21:08:40.724Z,88.61
2022-11-05T21:11:08.204Z,90.55
2022-11-05T21:13:34.980Z,91.72
2022-11-05T21:16:02.702Z,91.38
2022-11-05T21:18:31.622Z,90.52
2022-11-05T21:21:00.436Z,90.78
2022-11-05T21:23:28.331Z,90.61
2022-11-05T21:25:55.630Z,91.42
2022-11-05T21:28:22.205Z,92.06
2022-11-05T21:30:49.279Z,91.04
2022-11-05T21:33:18.053Z,92.31
2022-11-05T21:35:46.844Z,91.51
2022-11-05T21:38:15.958Z,91.64
2022-11-05T21:40:43.103Z,91.58
2022-11-05T21:43:10.080Z,91.96
2022-11-05T21:45:41.076Z,90.74
2022-11-05T21:48:08.824Z,91.79
2022-11-05T21:50:57.017Z,91.36
2022-11-05T21:53:42.734Z,90.37
2022-11-05T21:56:43.922Z,91.13
2022-11-05T21:59:34.636Z,91.73
2022-11-05T22:02:02.141Z,92.49
2022-11-05T22:04:30.559Z,92.43
2022-11-05T22:06:57.652Z,92.34
2022-11-05T22:09:25.334Z,90.83
2022-11-05T22:11:52.906Z,92.37
2022-11-05T22:14:19.470Z,92.56
2022-11-05T22:16:46.331Z,92.14
2022-11-05T22:19:13.060Z,92.15
2022-11-05T22:21:39.894Z,91.03
2022-11-05T22:24:07.387Z,91.49
2022-11-05T22:26:33.988Z,91.73
2022-11-05T22:29:00.515Z,91.78
2022-11-05T22:31:31.770Z,91.04
2022-11-05T22:34:01.818Z,91.36
2022-11-05T22:36:28.335Z,90.24
2022-11-05T22:38:54.832Z,91.10
2022-11-05T22:41:22.562Z,91.54
2022-11-05T22:43:49.652Z,91.54
2022-11-05T22:46:19.547Z,91.57
2022-11-05T22:48:46.581Z,92.11
2022-11-05T22:51:15.780Z,92.01
2022-11-05T22:53:42.946Z,92.96
2022-11-05T22:56:12.983Z,93.12
2022-11-05T22:58:39.945Z,92.82
2022-11-05T23:01:08.240Z,92.12
2022-11-05T23:03:34.927Z,92.35
2022-11-05T23:06:04.732Z,92.70
2022-11-05T23:08:50.622Z,93.25
2022-11-05T23:11:35.548Z,92.27
2022-11-05T23:14:02.780Z,91.94
2022-11-05T23:16:48.207Z,92.30
2022-11-05T23:19:33.586Z,93.93
2022-11-05T23:22:30.002Z,93.79
2022-11-05T23:24:56.547Z,93.11
2022-11-05T23:27:23.315Z,93.76
2022-11-05T23:29:49.870Z,93.14
2022-11-05T23:32:25.079Z,93.30
2022-11-05T23:34:56.948Z,93.22
2022-11-05T23:37:51.048Z,94.48
2022-11-05T23:40:21.436Z,95.56
2022-11-05T23:43:07.150Z,95.52
2022-11-05T23:45:52.689Z,95.76
2022-11-05T23:48:29.057Z,96.36
2022-11-05T23:50:55.702Z,96.92
2022-11-05T23:53:23.048Z,96.76
2022-11-05T23:55:50.029Z,97.33
2022-11-05T23:58:17.371Z,98.14
